Time;durP1;ratioP1;P1;durP2;ratioP2;P2;SDS_P1;SDS_P2;PMS_P1;PMS_P2;Temp;Humidity;BMP_temperature;BMP_pressure;BME280_temperature;BME280_humidity;BME280_pressure;Samples;Min_cycle;Max_cycle;Signal;HPM_P1;HPM_P2
2021/12/04 00:00:52;;;;;;;23.20;6.80;;;;;;;4.31;79.79;98348.38;4965769;28;20047;-52
2021/12/04 00:03:20;;;;;;;23.48;7.40;;;;;;;4.33;79.98;98344.09;4969857;28;20475;-54
2021/12/04 00:05:52;;;;;;;23.50;7.47;;;;;;;4.35;79.90;98345.78;4964866;28;20205;-53
2021/12/04 00:08:19;;;;;;;21.23;7.60;;;;;;;4.37;80.01;98341.53;4968689;28;20046;-54
2021/12/04 00:10:46;;;;;;;23.75;7.43;;;;;;;4.40;79.81;98332.97;4966316;28;20521;-50
2021/12/04 00:13:13;;;;;;;42.38;8.05;;;;;;;4.42;79.95;98330.41;4968542;28;20094;-52
2021/12/04 00:15:39;;;;;;;25.73;7.55;;;;;;;4.44;79.88;98328.66;4967399;28;20046;-52
2021/12/04 00:18:06;;;;;;;32.15;8.15;;;;;;;4.45;79.71;98320.09;4970133;28;20047;-54
2021/12/04 00:20:34;;;;;;;34.97;8.05;;;;;;;4.46;79.33;98326.94;4968545;28;20047;-52
2021/12/04 00:23:00;;;;;;;36.95;8.40;;;;;;;4.46;79.61;98321.81;4968564;28;20129;-52
2021/12/04 00:25:28;;;;;;;32.35;7.60;;;;;;;4.43;80.34;98321.84;4968326;28;20399;-51
2021/12/04 00:27:55;;;;;;;44.10;8.95;;;;;;;4.42;79.72;98315.84;4965845;28;20130;-55
2021/12/04 00:30:22;;;;;;;36.92;8.05;;;;;;;4.42;79.63;98312.44;4968450;28;20043;-51
2021/12/04 00:33:01;;;;;;;29.35;7.90;;;;;;;4.40;79.66;98316.72;4967786;28;20439;-55
2021/12/04 00:35:35;;;;;;;34.65;8.07;;;;;;;4.38;79.55;98309.03;4966591;28;20513;-52
2021/12/04 00:43:16;;;;;;;30.90;8.35;;;;;;;4.36;79.62;98306.47;4969243;28;20058;-51
2021/12/04 00:49:07;;;;;;;30.23;8.32;;;;;;;4.36;79.86;98301.34;4966319;28;20051;-55
2021/12/04 00:49:10;;;;;;;29.05;8.73;;;;;;;4.40;79.71;98311.59;4965694;28;20046;-51
2021/12/04 00:51:42;;;;;;;28.95;7.78;;;;;;;4.43;79.94;98309.00;4968188;28;20047;-53
2021/12/04 00:54:10;;;;;;;26.42;8.43;;;;;;;4.45;79.65;98307.28;4966322;28;20051;-51
2021/12/04 00:56:39;;;;;;;29.65;7.72;;;;;;;4.50;79.84;98303.00;4965896;28;20058;-53
2021/12/04 00:59:07;;;;;;;29.77;8.25;;;;;;;4.52;79.83;98301.25;4968355;28;20112;-52
2021/12/04 01:01:34;;;;;;;30.35;8.18;;;;;;;4.56;80.06;98296.97;4964443;28;20058;-54
2021/12/04 01:04:00;;;;;;;27.52;8.40;;;;;;;4.57;79.35;98289.28;4964953;28;20125;-52
2021/12/04 01:06:27;;;;;;;30.48;8.63;;;;;;;4.58;79.90;98285.84;4966432;28;20093;-51
2021/12/04 01:08:54;;;;;;;50.47;8.40;;;;;;;4.59;79.70;98279.84;4963509;28;20055;-52
2021/12/04 01:11:21;;;;;;;56.97;9.13;;;;;;;4.60;79.49;98284.09;4964388;28;20066;-51
2021/12/04 01:13:47;;;;;;;56.35;9.35;;;;;;;4.60;80.05;98268.72;4966164;28;20418;-52
2021/12/04 01:16:14;;;;;;;48.08;7.95;;;;;;;4.60;80.13;98268.72;4968186;28;20524;-53
2021/12/04 01:18:43;;;;;;;63.78;7.55;;;;;;;4.61;80.18;98267.88;4966057;28;20057;-51
2021/12/04 01:21:11;;;;;;;42.17;7.47;;;;;;;4.65;80.27;98265.25;4967314;28;20046;-52
2021/12/04 01:23:38;;;;;;;53.67;7.07;;;;;;;4.66;80.26;98267.81;4964832;28;20583;-53
2021/12/04 01:26:05;;;;;;;80.95;8.15;;;;;;;4.63;79.93;98258.44;4968721;28;21155;-53
2021/12/04 01:28:32;;;;;;;70.57;7.35;;;;;;;4.65;80.30;98260.13;4968276;28;20046;-54
2021/12/04 01:30:58;;;;;;;54.88;6.95;;;;;;;4.62;80.34;98261.88;4962661;28;20047;-51
2021/12/04 01:33:25;;;;;;;71.07;7.25;;;;;;;4.62;79.96;98254.19;4965081;28;20054;-50
2021/12/04 01:35:52;;;;;;;70.10;7.78;;;;;;;4.62;80.38;98256.75;4966325;28;20046;-52
2021/12/04 01:38:19;;;;;;;64.43;6.60;;;;;;;4.60;80.35;98255.91;4966498;28;21136;-52
2021/12/04 01:40:46;;;;;;;57.90;6.28;;;;;;;4.59;80.25;98246.50;4966353;28;20046;-50
2021/12/04 01:43:13;;;;;;;52.75;6.38;;;;;;;4.58;80.45;98249.94;4964049;28;20047;-52
2021/12/04 01:45:39;;;;;;;44.67;6.63;;;;;;;4.59;80.63;98241.38;4967088;28;20049;-53
2021/12/04 01:48:06;;;;;;;63.72;6.20;;;;;;;4.60;80.34;98235.38;4967231;28;20078;-53
2021/12/04 01:50:34;;;;;;;58.33;6.03;;;;;;;4.61;80.31;98234.53;4970829;28;20058;-53
2021/12/04 01:53:02;;;;;;;50.80;6.15;;;;;;;4.61;80.19;98231.97;4968186;28;20051;-49
2021/12/04 01:55:32;;;;;;;71.13;6.40;;;;;;;4.63;80.02;98222.53;4980502;28;20050;-49
2021/12/04 01:58:01;;;;;;;67.53;6.53;;;;;;;4.65;80.16;98219.09;4971330;28;20085;-52
2021/12/04 02:00:29;;;;;;;55.25;5.70;;;;;;;4.67;80.42;98217.38;4967982;28;20105;-52
2021/12/04 02:02:56;;;;;;;35.08;5.65;;;;;;;4.69;80.42;98221.63;4969914;28;20047;-50
2021/12/04 02:05:24;;;;;;;48.47;5.80;;;;;;;4.71;80.54;98224.19;4970187;28;20051;-51
2021/12/04 02:07:51;;;;;;;69.45;5.95;;;;;;;4.73;80.78;98215.63;4968305;28;20499;-52
2021/12/04 02:10:18;;;;;;;54.67;5.57;;;;;;;4.74;80.15;98214.78;4966895;28;20050;-50
2021/12/04 02:12:44;;;;;;;59.47;6.68;;;;;;;4.76;80.93;98205.34;4969140;28;20058;-50
2021/12/04 02:15:13;;;;;;;60.58;5.90;;;;;;;4.77;81.14;98211.34;4970610;28;20475;-53
2021/12/04 02:17:40;;;;;;;55.47;6.47;;;;;;;4.79;80.56;98212.16;4968502;28;20644;-49
2021/12/04 02:20:10;;;;;;;37.47;6.25;;;;;;;4.79;80.71;98207.03;4971376;28;20455;-51
2021/12/04 02:22:37;;;;;;;58.58;6.00;;;;;;;4.81;80.52;98205.31;4966938;28;20050;-51
2021/12/04 02:25:07;;;;;;;68.93;6.15;;;;;;;4.82;80.67;98201.88;4966595;28;20046;-54
2021/12/04 02:27:33;;;;;;;39.45;5.55;;;;;;;4.82;80.87;98196.75;4967811;28;20631;-52
2021/12/04 02:30:00;;;;;;;38.65;5.40;;;;;;;4.82;80.80;98191.59;4967147;28;20046;-51
2021/12/04 02:32:28;;;;;;;43.72;5.80;;;;;;;4.85;80.51;98191.59;4970229;28;20078;-54
2021/12/04 02:34:54;;;;;;;61.22;6.38;;;;;;;4.86;80.53;98189.84;4966410;28;20058;-53
2021/12/04 02:37:21;;;;;;;52.45;5.75;;;;;;;4.87;81.11;98194.13;4968002;28;20090;-52
2021/12/04 02:39:56;;;;;;;62.90;7.10;;;;;;;4.86;81.16;98188.16;4966651;28;20098;-51
2021/12/04 02:42:27;;;;;;;58.97;5.32;;;;;;;4.87;81.01;98189.84;4966486;28;20050;-51
2021/12/04 02:44:54;;;;;;;74.88;6.30;;;;;;;4.88;81.29;98181.31;4970779;28;20047;-52
2021/12/04 02:47:21;;;;;;;68.95;5.53;;;;;;;4.88;81.17;98176.16;4967614;28;20050;-51
2021/12/04 02:49:48;;;;;;;57.85;6.38;;;;;;;4.88;81.67;98183.88;4968204;28;20043;-53
2021/12/04 02:52:15;;;;;;;57.08;6.30;;;;;;;4.92;81.02;98196.63;4968685;28;20522;-54
2021/12/04 02:54:41;;;;;;;50.60;6.25;;;;;;;4.92;81.06;98206.91;4966877;28;20054;-51
2021/12/04 02:57:12;;;;;;;52.80;6.70;;;;;;;4.93;80.98;98195.78;4970433;28;20441;-49
2021/12/04 02:59:40;;;;;;;47.33;5.50;;;;;;;4.92;81.44;98194.94;4969933;28;20058;-54
2021/12/04 03:02:25;;;;;;;54.53;5.97;;;;;;;4.94;81.62;98192.34;4968080;28;20058;-54
2021/12/04 03:04:55;;;;;;;35.95;5.00;;;;;;;4.97;82.00;98188.03;4964256;28;20074;-54
2021/12/04 03:07:22;;;;;;;38.13;5.22;;;;;;;4.98;81.10;98181.19;4966526;28;20042;-54
2021/12/04 03:09:51;;;;;;;41.22;5.63;;;;;;;5.00;81.01;98179.47;4970487;28;20042;-55
2021/12/04 03:12:20;;;;;;;30.27;6.22;;;;;;;4.99;81.45;98172.63;4969031;28;20042;-54
2021/12/04 03:14:46;;;;;;;32.85;7.15;;;;;;;5.00;81.42;98174.34;4969541;28;20050;-52
2021/12/04 03:17:17;;;;;;;36.05;5.97;;;;;;;5.00;81.54;98167.47;4969011;28;20062;-51
2021/12/04 03:19:43;;;;;;;;;;;;;;;4.98;81.45;98163.22;4969001;28;20094;-53
2021/12/04 03:22:10;;;;;;;26.55;5.28;;;;;;;5.01;81.14;98155.50;4967752;28;20551;-49
2021/12/04 03:24:40;;;;;;;31.48;6.38;;;;;;;5.02;81.00;98149.50;4968135;28;20062;-54
2021/12/04 03:27:07;;;;;;;29.65;5.40;;;;;;;5.01;81.42;98145.25;4970744;28;20074;-54
2021/12/04 03:29:40;;;;;;;29.42;5.25;;;;;;;5.02;81.38;98141.81;4968973;28;20047;-52
2021/12/04 03:32:23;;;;;;;25.45;5.97;;;;;;;5.01;81.53;98142.69;4971059;28;20105;-52
2021/12/04 03:40:48;;;;;;;31.98;6.78;;;;;;;5.02;81.52;98136.69;4968560;28;20502;-53
2021/12/04 03:43:10;;;;;;;34.97;6.90;;;;;;;5.03;81.08;98138.38;4965352;28;20057;-54
2021/12/04 03:45:39;;;;;;;32.63;6.97;;;;;;;5.04;81.19;98134.09;4968467;28;20051;-55
2021/12/04 03:48:10;;;;;;;43.47;7.65;;;;;;;5.04;81.29;98134.97;4966559;28;20482;-55
2021/12/04 03:50:36;;;;;;;;;;;;;;;4.99;81.41;98127.31;4965365;28;20047;-51
2021/12/04 03:53:05;;;;;;;35.15;7.32;;;;;;;5.04;81.71;98127.25;4969460;28;19929;-54
2021/12/04 03:55:32;;;;;;;35.40;7.20;;;;;;;5.08;81.56;98121.22;4967306;28;20050;-53
2021/12/04 03:57:58;;;;;;;34.45;6.60;;;;;;;5.09;81.22;98111.78;4969058;28;20575;-52
2021/12/04 04:00:28;;;;;;;29.88;6.63;;;;;;;5.11;81.21;98117.75;4966314;28;20097;-54
2021/12/04 04:02:57;;;;;;;35.78;6.18;;;;;;;5.09;80.83;98120.34;4965904;28;20110;-56
2021/12/04 04:05:25;;;;;;;30.63;6.80;;;;;;;5.08;81.02;98123.78;4968479;28;20047;-51
2021/12/04 04:07:52;;;;;;;32.88;6.53;;;;;;;5.06;81.52;98115.25;4965613;28;20059;-52
2021/12/04 04:10:20;;;;;;;26.73;6.70;;;;;;;5.05;80.99;98116.13;4966489;28;20387;-54
2021/12/04 04:12:48;;;;;;;31.52;5.97;;;;;;;5.05;81.72;98116.13;4968524;28;20615;-52
2021/12/04 04:15:15;;;;;;;31.05;6.78;;;;;;;5.05;81.36;98120.38;4967417;28;20051;-54
2021/12/04 04:17:42;;;;;;;31.63;6.65;;;;;;;5.05;80.90;98121.25;4965615;28;20051;-54
2021/12/04 04:20:12;;;;;;;28.08;6.85;;;;;;;5.04;81.87;98114.44;4967545;28;20761;-54
2021/12/04 04:22:41;;;;;;;26.98;6.22;;;;;;;5.05;81.33;98108.41;4968498;28;20061;-52
2021/12/04 04:25:08;;;;;;;32.63;7.97;;;;;;;5.08;81.71;98105.81;4968047;28;20396;-51
2021/12/04 04:27:36;;;;;;;26.60;6.45;;;;;;;5.09;81.59;98106.66;4968400;28;20364;-53
2021/12/04 04:30:06;;;;;;;22.88;5.75;;;;;;;5.11;81.46;98103.22;4967537;28;20077;-55
2021/12/04 04:32:33;;;;;;;29.45;7.00;;;;;;;5.16;81.14;98104.88;4963296;28;20051;-54
2021/12/04 04:35:08;;;;;;;20.95;6.10;;;;;;;5.18;81.73;98096.28;4983158;28;20707;-54
2021/12/04 04:37:46;;;;;;;21.90;5.40;;;;;;;5.17;81.04;98096.31;4963896;28;20062;-54
2021/12/04 04:40:39;;;;;;;24.50;5.75;;;;;;;5.20;81.03;98103.97;4978911;28;20047;-54
2021/12/04 05:00:11;;;;;;;15.50;5.00;;;;;;;5.34;81.95;98142.31;4962807;28;20058;-53
2021/12/04 05:02:36;;;;;;;16.55;4.70;;;;;;;5.35;82.12;98147.44;4974701;28;20062;-52
2021/12/04 05:13:23;;;;;;;5.15;2.17;;;;;;;5.28;81.08;98161.22;4966409;28;20565;-53
2021/12/04 05:15:57;;;;;;;3.25;1.60;;;;;;;5.27;79.91;98159.50;4963760;28;20058;-54
2021/12/04 05:18:36;;;;;;;4.07;2.15;;;;;;;5.27;80.32;98169.78;4968066;28;20592;-54
2021/12/04 05:21:05;;;;;;;4.15;1.42;;;;;;;5.25;79.34;98168.94;4968987;28;20057;-52
2021/12/04 05:23:36;;;;;;;1.67;0.52;;;;;;;5.20;78.74;98161.28;4972224;28;21102;-54
2021/12/04 05:26:05;;;;;;;1.73;0.60;;;;;;;5.13;78.89;98155.38;4970638;28;20086;-54
2021/12/04 05:28:32;;;;;;;1.10;0.43;;;;;;;5.09;78.03;98152.84;4970670;28;20054;-52
2021/12/04 05:30:59;;;;;;;1.98;0.68;;;;;;;5.07;78.00;98160.56;4970159;28;20039;-54
2021/12/04 05:33:26;;;;;;;2.78;0.73;;;;;;;5.04;77.78;98160.63;4981833;28;20137;-53
2021/12/04 05:35:53;;;;;;;1.40;0.45;;;;;;;5.01;78.00;98165.78;4971767;28;20050;-54
2021/12/04 05:38:21;;;;;;;3.08;0.43;;;;;;;4.98;78.24;98170.94;4968681;28;20046;-54
2021/12/04 05:40:48;;;;;;;3.80;0.43;;;;;;;4.96;78.73;98167.56;4969517;28;20050;-55
2021/12/04 05:43:17;;;;;;;0.77;0.30;;;;;;;4.95;78.42;98165.81;4968545;28;20050;-54
2021/12/04 05:45:51;;;;;;;5.22;0.60;;;;;;;4.98;78.18;98152.97;4967389;28;20105;-55
2021/12/04 05:48:27;;;;;;;2.17;0.47;;;;;;;4.95;78.50;98147.88;4971765;28;20098;-56
2021/12/04 05:51:13;;;;;;;1.48;0.65;;;;;;;4.93;78.63;98142.75;4969685;28;20073;-54
2021/12/04 05:54:00;;;;;;;1.33;0.50;;;;;;;4.91;78.59;98143.63;4972314;28;20125;-52
2021/12/04 05:56:29;;;;;;;1.20;0.43;;;;;;;4.90;78.16;98142.81;4980987;28;20054;-53
2021/12/04 05:58:57;;;;;;;1.02;0.50;;;;;;;4.91;78.53;98141.06;4966673;28;20057;-53
2021/12/04 06:01:25;;;;;;;2.80;0.43;;;;;;;4.88;78.18;98149.66;4970809;28;20089;-55
2021/12/04 06:03:53;;;;;;;2.10;0.40;;;;;;;4.83;78.29;98141.16;4971027;28;20047;-52
2021/12/04 06:06:20;;;;;;;3.95;0.40;;;;;;;4.83;77.64;98146.28;4970094;28;20046;-53
2021/12/04 06:08:46;;;;;;;5.28;0.55;;;;;;;4.84;77.83;98158.25;4971361;28;20426;-54
2021/12/04 06:11:13;;;;;;;4.65;0.45;;;;;;;4.82;78.33;98150.56;4970312;28;20070;-53
2021/12/04 06:13:40;;;;;;;4.72;0.63;;;;;;;4.78;77.94;98154.03;4969508;28;20057;-53
2021/12/04 06:16:07;;;;;;;2.15;0.43;;;;;;;4.75;77.89;98154.06;4969587;28;20063;-50
2021/12/04 06:18:39;;;;;;;2.40;0.30;;;;;;;4.74;78.20;98158.34;4971137;28;20050;-54
2021/12/04 06:23:52;;;;;;;2.53;0.75;;;;;;;4.69;77.99;98172.09;4980005;28;20479;-55
2021/12/04 06:26:19;;;;;;;2.42;0.30;;;;;;;4.65;77.69;98165.25;4969952;28;20062;-53
2021/12/04 06:28:45;;;;;;;1.75;0.75;;;;;;;4.60;77.94;98166.16;4969920;28;20049;-53
2021/12/04 06:31:13;;;;;;;1.17;0.40;;;;;;;4.56;77.99;98167.03;4970598;28;20126;-51
2021/12/04 06:33:40;;;;;;;0.93;0.30;;;;;;;4.52;77.58;98173.06;4969651;28;20066;-52
2021/12/04 06:36:08;;;;;;;1.95;0.35;;;;;;;4.49;77.72;98173.06;4970393;28;20055;-53
2021/12/04 06:38:35;;;;;;;3.53;0.85;;;;;;;4.47;77.66;98174.81;4969933;28;20054;-53
2021/12/04 06:41:03;;;;;;;0.80;0.30;;;;;;;4.44;78.07;98182.53;4966645;28;20478;-53
2021/12/04 06:43:30;;;;;;;1.73;0.30;;;;;;;4.41;77.77;98178.28;4969512;28;20050;-51
2021/12/04 06:45:59;;;;;;;2.20;0.57;;;;;;;4.39;77.60;98189.41;4967563;28;20063;-56
2021/12/04 06:48:36;;;;;;;1.42;0.63;;;;;;;4.33;77.23;98188.56;4968938;28;20412;-51
2021/12/04 06:56:41;;;;;;;0.70;0.30;;;;;;;4.20;78.05;98189.53;4966976;28;20059;-52
2021/12/04 06:59:12;;;;;;;3.40;0.60;;;;;;;4.15;77.45;98183.59;4967874;28;20061;-53
2021/12/04 07:01:39;;;;;;;4.85;0.70;;;;;;;4.11;77.51;98177.63;4966032;28;20043;-55
2021/12/04 07:04:07;;;;;;;3.88;0.45;;;;;;;4.07;77.63;98179.38;4969775;28;20567;-54
2021/12/04 07:06:34;;;;;;;3.50;0.60;;;;;;;4.03;77.49;98180.25;4970048;28;20479;-52
2021/12/04 07:09:03;;;;;;;3.20;0.47;;;;;;;3.99;77.50;98181.16;4968795;28;20047;-52
2021/12/04 07:11:29;;;;;;;3.90;0.63;;;;;;;3.94;77.67;98185.44;4968745;28;20050;-52
2021/12/04 07:13:57;;;;;;;0.80;0.40;;;;;;;3.92;77.72;98184.59;4970608;28;20081;-55
2021/12/04 07:16:24;;;;;;;0.93;0.68;;;;;;;3.86;77.58;98176.06;4966196;28;20062;-49
2021/12/04 07:18:51;;;;;;;2.47;0.65;;;;;;;3.84;77.25;98180.38;4969940;28;20054;-51
2021/12/04 07:21:18;;;;;;;3.92;0.30;;;;;;;3.81;77.74;98185.50;4967093;28;20055;-55
2021/12/04 07:23:45;;;;;;;0.90;0.20;;;;;;;3.81;77.80;98190.63;4966022;28;20054;-55
2021/12/04 07:26:12;;;;;;;3.63;0.60;;;;;;;3.77;77.29;98199.19;4969609;28;20055;-52
2021/12/04 07:28:39;;;;;;;8.18;0.60;;;;;;;3.74;77.51;98194.06;4969099;28;20062;-53
2021/12/04 07:31:06;;;;;;;1.00;0.65;;;;;;;3.70;78.07;98194.94;4968918;28;20125;-51
2021/12/04 07:33:33;;;;;;;2.65;0.40;;;;;;;3.68;77.17;98199.25;4966528;28;20101;-49
2021/12/04 07:36:00;;;;;;;6.75;3.05;;;;;;;3.64;77.27;98207.78;4967419;28;20663;-54
2021/12/04 07:38:28;;;;;;;10.68;5.05;;;;;;;3.62;77.56;98204.38;4965584;28;20065;-55
2021/12/04 07:40:56;;;;;;;10.00;3.25;;;;;;;3.58;77.89;98204.38;4968301;28;20043;-49
2021/12/04 07:43:23;;;;;;;5.63;1.05;;;;;;;3.56;77.43;98211.22;4965708;28;20451;-53
2021/12/04 07:45:51;;;;;;;1.75;0.90;;;;;;;3.50;77.76;98206.13;4967415;28;20050;-54
2021/12/04 07:48:17;;;;;;;2.28;0.70;;;;;;;3.48;77.11;98202.75;4965449;28;20054;-51
2021/12/04 07:50:44;;;;;;;5.85;0.85;;;;;;;3.45;76.53;98200.19;4964953;28;20440;-52
2021/12/04 07:53:11;;;;;;;4.70;0.60;;;;;;;3.42;77.14;98203.59;4965847;28;20055;-52
2021/12/04 07:55:38;;;;;;;5.47;0.73;;;;;;;3.42;77.04;98198.50;4965376;28;20060;-52
2021/12/04 07:58:05;;;;;;;2.78;0.82;;;;;;;3.40;76.68;98204.44;4966347;28;20133;-52
2021/12/04 08:00:31;;;;;;;5.78;0.82;;;;;;;3.37;76.00;98205.31;4966067;28;20046;-53
2021/12/04 08:03:01;;;;;;;5.60;1.13;;;;;;;3.33;76.81;98204.47;4960410;28;20047;-51
2021/12/04 08:05:29;;;;;;;8.13;2.08;;;;;;;3.30;76.83;98204.47;4966092;28;20046;-52
2021/12/04 08:07:56;;;;;;;15.43;4.63;;;;;;;3.29;76.27;98202.78;4963142;28;20094;-54
2021/12/04 08:10:23;;;;;;;19.63;5.07;;;;;;;3.26;76.52;98201.94;4966343;28;20059;-52
2021/12/04 08:12:50;;;;;;;15.00;4.80;;;;;;;3.24;77.21;98204.50;4966346;28;20054;-55
2021/12/04 08:15:17;;;;;;;10.82;4.25;;;;;;;3.19;77.22;98196.84;4966244;28;20648;-51
2021/12/04 08:17:45;;;;;;;10.05;3.20;;;;;;;3.15;76.51;98199.41;4966174;28;20062;-54
2021/12/04 08:20:14;;;;;;;11.05;2.47;;;;;;;3.15;76.66;98204.53;4962917;28;20077;-52
2021/12/04 08:22:42;;;;;;;5.03;1.45;;;;;;;3.12;77.13;98205.41;4963044;28;20046;-50
2021/12/04 08:25:10;;;;;;;5.03;0.68;;;;;;;3.11;76.74;98208.81;4963896;28;20051;-52
2021/12/04 08:27:37;;;;;;;5.63;0.73;;;;;;;3.11;76.62;98213.06;4965195;28;20113;-49
2021/12/04 08:30:08;;;;;;;6.65;0.82;;;;;;;3.08;76.05;98209.66;4966334;28;20061;-50
2021/12/04 08:32:34;;;;;;;2.53;0.30;;;;;;;3.06;76.74;98216.50;4964854;28;20042;-54
2021/12/04 08:35:02;;;;;;;11.27;0.98;;;;;;;3.16;76.49;98216.47;4967647;28;20352;-54
2021/12/04 08:37:29;;;;;;;4.78;0.57;;;;;;;3.33;77.44;98219.84;4965399;28;20054;-54
2021/12/04 08:39:55;;;;;;;4.38;1.10;;;;;;;3.82;76.87;98223.03;4967194;28;20045;-53
2021/12/04 08:42:24;;;;;;;8.35;1.40;;;;;;;4.43;76.55;98225.25;4966748;28;20050;-53
2021/12/04 08:44:52;;;;;;;3.58;1.25;;;;;;;4.91;75.38;98225.72;4966427;28;20051;-52
2021/12/04 08:47:19;;;;;;;7.55;0.80;;;;;;;5.20;73.96;98222.06;4967938;28;20046;-51
2021/12/04 08:49:46;;;;;;;3.58;0.95;;;;;;;5.56;74.58;98219.94;4962334;28;20459;-50
2021/12/04 08:52:17;;;;;;;6.25;1.48;;;;;;;5.95;72.82;98216.88;4968150;28;20514;-50
2021/12/04 08:54:44;;;;;;;5.03;0.93;;;;;;;6.41;72.40;98217.97;4966098;28;20050;-53
2021/12/04 08:57:11;;;;;;;2.33;0.50;;;;;;;6.94;72.99;98216.25;4980382;28;20050;-51
2021/12/04 08:59:38;;;;;;;6.88;0.82;;;;;;;7.51;71.25;98216.94;4966167;28;20089;-53
2021/12/04 09:02:05;;;;;;;5.40;0.95;;;;;;;8.09;69.66;98216.59;4965025;28;20046;-51
2021/12/04 09:04:35;;;;;;;7.47;1.63;;;;;;;8.77;69.27;98227.97;4966714;28;20062;-53
2021/12/04 09:07:03;;;;;;;4.80;1.67;;;;;;;9.38;67.61;98229.84;4962432;28;20486;-51
2021/12/04 09:09:30;;;;;;;6.78;1.88;;;;;;;9.91;65.44;98218.06;4964532;28;20074;-53
2021/12/04 09:12:17;;;;;;;23.52;4.40;;;;;;;10.21;64.41;98225.78;4967542;28;20125;-53
2021/12/04 09:14:44;;;;;;;17.27;4.13;;;;;;;10.39;64.19;98219.19;4966880;28;20054;-51
2021/12/04 09:17:15;;;;;;;14.90;4.15;;;;;;;10.67;63.49;98222.66;4967585;28;20051;-51
2021/12/04 09:19:42;;;;;;;10.95;3.33;;;;;;;11.01;62.37;98220.72;4976690;28;20503;-49
2021/12/04 09:22:15;;;;;;;13.80;3.90;;;;;;;11.45;62.29;98227.81;4963831;28;20093;-54
2021/12/04 09:24:59;;;;;;;10.80;3.20;;;;;;;12.03;62.19;98221.38;4963500;28;20054;-56
2021/12/04 09:30:51;;;;;;;8.90;2.42;;;;;;;13.04;58.21;98224.34;4967268;28;20110;-53
2021/12/04 09:36:27;;;;;;;6.43;1.77;;;;;;;13.74;55.31;98230.91;4966999;28;20074;-55
2021/12/04 10:01:11;;;;;;;8.52;1.55;;;;;;;15.84;48.57;98204.19;4960215;28;20597;-51
2021/12/04 10:04:04;;;;;;;7.18;1.65;;;;;;;15.80;47.57;98202.69;4968262;28;20074;-54
2021/12/04 10:11:12;;;;;;;7.20;1.90;;;;;;;16.01;48.26;98199.88;4965194;28;20066;-54
2021/12/04 10:12:35;;;;;;;9.27;2.05;;;;;;;16.19;44.29;98204.06;4969832;28;20066;-51
2021/12/04 10:20:58;;;;;;;8.27;1.95;;;;;;;16.52;45.63;98194.41;4977207;28;20483;-54
2021/12/04 10:34:40;;;;;;;10.65;2.38;;;;;;;15.68;44.04;98199.81;4968904;28;20129;-52
2021/12/04 10:37:09;;;;;;;11.75;2.90;;;;;;;14.86;43.93;98197.03;4968573;28;20118;-53
2021/12/04 10:39:36;;;;;;;9.63;3.10;;;;;;;14.01;45.46;98192.38;4971372;28;20454;-51
2021/12/04 10:42:07;;;;;;;9.00;2.50;;;;;;;13.21;46.58;98189.00;4969199;28;20160;-54
2021/12/04 10:44:39;;;;;;;3.35;1.60;;;;;;;12.58;48.18;98186.41;4967773;28;20051;-52
2021/12/04 10:47:12;;;;;;;7.25;1.50;;;;;;;12.12;49.56;98183.06;4970408;28;21035;-54
2021/12/04 10:49:49;;;;;;;9.48;2.05;;;;;;;11.72;49.96;98178.44;4969736;28;20129;-54
2021/12/04 10:52:21;;;;;;;10.50;2.15;;;;;;;11.36;49.95;98168.53;4969567;28;20449;-52
2021/12/04 10:54:52;;;;;;;5.18;1.30;;;;;;;11.08;51.26;98164.34;4969180;28;20050;-53
2021/12/04 11:03:02;;;;;;;10.85;1.38;;;;;;;10.23;52.83;98172.25;4972686;28;20097;-56
2021/12/04 11:05:56;;;;;;;6.43;1.30;;;;;;;9.97;53.88;98168.72;4969704;28;20138;-54
2021/12/04 11:22:31;;;;;;;4.43;1.00;;;;;;;9.26;56.56;98189.72;4967356;28;20047;-54
2021/12/04 11:25:35;;;;;;;7.25;0.90;;;;;;;9.16;55.63;98178.78;4969123;28;20046;-54
2021/12/04 11:36:28;;;;;;;1.30;0.50;;;;;;;8.71;56.74;98172.19;4967205;28;20054;-53
2021/12/04 11:39:21;;;;;;;4.32;0.25;;;;;;;8.72;56.68;98166.97;4969591;28;20050;-55
2021/12/04 11:41:58;;;;;;;2.20;0.68;;;;;;;8.64;57.34;98170.66;4971000;28;20055;-51
2021/12/04 11:44:44;;;;;;;2.67;1.00;;;;;;;8.48;56.97;98151.19;4969845;28;20129;-52
2021/12/04 11:47:11;;;;;;;2.95;1.17;;;;;;;8.33;57.35;98161.91;4970233;28;20054;-55
2021/12/04 11:49:39;;;;;;;1.75;0.50;;;;;;;8.34;57.66;98142.94;4968761;28;20434;-54
2021/12/04 11:52:14;;;;;;;1.50;0.35;;;;;;;8.30;56.87;98137.03;4968449;28;20101;-55
2021/12/04 11:54:49;;;;;;;5.38;0.80;;;;;;;8.20;57.86;98141.56;4967807;28;20061;-55
2021/12/04 11:57:25;;;;;;;3.35;0.80;;;;;;;8.17;58.42;98139.06;4968102;28;20648;-53
2021/12/04 11:59:52;;;;;;;4.93;1.23;;;;;;;8.06;57.17;98128.13;4969911;28;20057;-53
2021/12/04 12:02:22;;;;;;;2.90;0.57;;;;;;;8.17;58.01;98126.16;4968258;28;20051;-55
2021/12/04 12:04:54;;;;;;;2.83;0.65;;;;;;;8.02;57.53;98111.06;4968678;28;20050;-49
2021/12/04 12:07:24;;;;;;;2.13;0.50;;;;;;;7.97;58.71;98114.59;4968133;28;20051;-55
2021/12/04 12:10:12;;;;;;;21.38;9.88;;;;;;;7.88;58.11;98109.66;4968040;28;20408;-51
2021/12/04 12:12:42;;;;;;;3.50;1.70;;;;;;;7.78;59.26;98095.28;4965894;28;20042;-54
2021/12/04 12:15:23;;;;;;;2.72;1.27;;;;;;;7.67;59.13;98100.69;4968234;28;20047;-56
2021/12/04 12:17:51;;;;;;;3.90;0.88;;;;;;;7.60;58.18;98094.78;4969260;28;20051;-56
2021/12/04 12:20:39;;;;;;;3.15;1.35;;;;;;;7.59;59.34;98087.94;4967933;28;20055;-56
2021/12/04 12:23:10;;;;;;;2.75;0.50;;;;;;;7.49;58.38;98101.94;4965864;28;20054;-56
2021/12/04 12:25:55;;;;;;;3.78;0.80;;;;;;;7.40;60.05;98098.66;4966802;28;20069;-54
2021/12/04 12:36:02;;;;;;;0.40;0.10;;;;;;;7.06;59.05;98095.03;4966495;28;20046;-55
2021/12/04 12:37:23;;;;;;;3.20;0.40;;;;;;;7.02;60.23;98089.97;4964984;28;20046;-56
2021/12/04 12:40:00;;;;;;;5.35;1.02;;;;;;;6.99;60.61;98105.50;4967753;28;20141;-51
2021/12/04 12:42:31;;;;;;;1.75;0.65;;;;;;;6.93;59.92;98091.03;4967672;28;20511;-53
2021/12/04 12:45:18;;;;;;;3.03;0.40;;;;;;;6.94;60.39;98109.03;4967730;28;20047;-53
2021/12/04 12:47:48;;;;;;;2.83;0.45;;;;;;;6.87;61.00;98110.00;4968860;28;20078;-56
2021/12/04 12:50:38;;;;;;;1.98;0.85;;;;;;;6.83;60.14;98108.38;4967114;28;20082;-53
2021/12/04 12:53:10;;;;;;;1.58;0.70;;;;;;;6.86;59.59;98113.44;4977519;28;20046;-53
2021/12/04 12:55:44;;;;;;;3.15;0.50;;;;;;;6.88;60.42;98124.56;4967550;28;20046;-55
2021/12/04 12:58:15;;;;;;;1.27;0.50;;;;;;;6.82;61.53;98122.97;4967836;28;20109;-51
2021/12/04 13:12:06;;;;;;;2.47;0.43;;;;;;;6.56;60.27;98120.88;4961408;28;20055;-52
2021/12/04 13:14:46;;;;;;;8.52;0.65;;;;;;;6.43;60.53;98121.06;4962779;28;20066;-51
2021/12/04 13:17:16;;;;;;;4.15;1.67;;;;;;;6.39;61.74;98101.41;4968794;28;20046;-49
2021/12/04 13:19:48;;;;;;;7.60;2.80;;;;;;;6.34;60.98;98108.38;4961849;28;20053;-50
2021/12/04 13:22:22;;;;;;;6.22;3.00;;;;;;;6.34;61.10;98094.66;4961962;28;20043;-53
2021/12/04 13:24:53;;;;;;;5.78;2.90;;;;;;;6.34;62.07;98110.94;4964498;28;20047;-54
2021/12/04 13:30:08;;;;;;;6.80;2.50;;;;;;;6.62;61.19;98113.03;5036357;28;20396;-52
2021/12/04 13:32:39;;;;;;;5.95;3.25;;;;;;;6.42;62.76;98103.94;5018520;28;20050;-52
2021/12/04 13:35:11;;;;;;;5.10;2.67;;;;;;;6.41;62.58;98094.53;5016875;28;20064;-50
2021/12/04 13:37:39;;;;;;;6.32;1.13;;;;;;;6.38;62.35;98097.16;5014271;28;20045;-52
2021/12/04 13:40:10;;;;;;;2.65;0.85;;;;;;;6.36;62.86;98083.47;5016656;28;20053;-49
2021/12/04 13:42:38;;;;;;;8.10;0.75;;;;;;;6.35;62.87;98091.22;5015686;28;20073;-52
2021/12/04 13:45:08;;;;;;;5.25;0.65;;;;;;;6.30;62.15;98083.56;5022771;28;20413;-52
2021/12/04 13:47:36;;;;;;;2.50;1.23;;;;;;;6.28;62.43;98087.88;5022829;28;20051;-53
2021/12/04 13:50:21;;;;;;;4.93;0.60;;;;;;;6.31;61.67;98085.25;5024188;28;20119;-50
2021/12/04 13:52:48;;;;;;;4.57;1.45;;;;;;;6.32;62.86;98084.41;5021832;28;20056;-51
2021/12/04 13:55:17;;;;;;;6.25;1.50;;;;;;;6.33;62.47;98080.09;5019227;28;20579;-53
2021/12/04 13:57:45;;;;;;;7.50;2.20;;;;;;;6.36;61.46;98088.63;5022468;28;20045;-51
2021/12/04 14:00:15;;;;;;;4.70;0.55;;;;;;;6.32;60.90;98079.28;5021900;28;20056;-50
2021/12/04 14:02:43;;;;;;;5.72;0.52;;;;;;;6.36;61.51;98083.47;5023708;28;20037;-51
2021/12/04 14:05:13;;;;;;;5.00;1.05;;;;;;;6.35;61.67;98079.19;5020920;28;20054;-53
2021/12/04 14:07:53;;;;;;;5.72;1.52;;;;;;;6.39;60.83;98078.25;5051958;28;20045;-49
2021/12/04 14:10:26;;;;;;;3.78;2.58;;;;;;;6.46;61.20;98083.31;5025794;28;20062;-51
2021/12/04 14:12:54;;;;;;;4.57;0.32;;;;;;;6.50;62.32;98074.66;5002403;28;20050;-51